Terminal Aerodrome Forecast
Issued by NWS

Home | Current Version | Previous Version | Text Only | Print | Product List | Glossary On
Versions: 1 2 3 4 5 6 7 8 9 10 11 12 13 14 15 16 17 18 19 20 21 22
747
FTUS41 KCAR 261720
TAFPQI
TAF
KPQI 261720Z 2618/2718 30007KT P6SM FEW250
     FM262200 VRB03KT P6SM SKC
     FM271500 VRB03KT 6SM -RA OVC040
     FM271700 09004KT P6SM SCT007 OVC030=

USA.gov is the U.S. government's official web portal to all federal, state and local government web resources and services.